Time;durP1;ratioP1;P1;durP2;ratioP2;P2;SDS_P1;SDS_P2;PMS_P1;PMS_P2;Temp;Humidity;BMP_temperature;BMP_pressure;BME280_temperature;BME280_humidity;BME280_pressure;Samples;Min_cycle;Max_cycle;Signal;HPM_P1;HPM_P2
2022/12/07 00:01:54;;;;;;;17.50;10.50;;;3.00;99.90;;;;;;5054445;28;20471;-66
2022/12/07 00:04:21;;;;;;;16.17;9.77;;;3.00;99.90;;;;;;5054405;28;20547;-67
2022/12/07 00:06:52;;;;;;;16.27;9.10;;;3.00;99.90;;;;;;5054695;28;20463;-68
2022/12/07 00:09:20;;;;;;;16.80;9.43;;;3.00;99.90;;;;;;5054800;28;20440;-69
2022/12/07 00:11:51;;;;;;;15.47;9.80;;;2.90;99.90;;;;;;5054665;28;20455;-67
2022/12/07 00:14:18;;;;;;;16.43;10.13;;;3.00;99.90;;;;;;5056206;28;20557;-67
2022/12/07 00:16:46;;;;;;;20.43;9.90;;;3.00;99.90;;;;;;5058708;28;20546;-68
2022/12/07 00:19:14;;;;;;;15.17;9.90;;;3.00;99.90;;;;;;5058884;28;20553;-68
2022/12/07 00:21:41;;;;;;;13.93;8.80;;;3.00;99.90;;;;;;5058569;28;20489;-67
2022/12/07 00:24:08;;;;;;;13.73;9.30;;;3.00;99.90;;;;;;5058132;28;20505;-69
2022/12/07 00:26:37;;;;;;;16.83;9.53;;;2.90;99.90;;;;;;5058388;28;20443;-67
2022/12/07 00:29:07;;;;;;;15.23;9.63;;;2.90;99.90;;;;;;5058465;28;20473;-67
2022/12/07 00:31:38;;;;;;;13.53;9.20;;;2.80;99.90;;;;;;5058440;28;20537;-67
2022/12/07 00:34:05;;;;;;;13.80;9.40;;;2.80;99.90;;;;;;5058334;28;20896;-67
2022/12/07 00:36:32;;;;;;;13.60;9.27;;;2.80;99.90;;;;;;5058173;28;20542;-67
2022/12/07 00:39:00;;;;;;;16.23;9.73;;;2.70;99.90;;;;;;5058678;28;20549;-67
2022/12/07 00:41:28;;;;;;;13.60;9.90;;;2.70;99.90;;;;;;5058086;28;20636;-67
2022/12/07 00:43:55;;;;;;;14.27;9.00;;;2.70;99.90;;;;;;5058341;28;20549;-66
2022/12/07 00:46:24;;;;;;;15.27;10.47;;;2.70;99.90;;;;;;5058541;28;20541;-67
2022/12/07 00:48:52;;;;;;;13.23;9.60;;;2.70;99.90;;;;;;5057888;28;20553;-65
2022/12/07 00:51:21;;;;;;;13.80;9.80;;;2.80;99.90;;;;;;5057821;28;20546;-67
2022/12/07 00:53:47;;;;;;;13.47;8.83;;;2.70;99.90;;;;;;5057793;28;20884;-67
2022/12/07 00:56:16;;;;;;;13.23;9.70;;;2.70;99.90;;;;;;5057486;28;20981;-67
2022/12/07 00:58:43;;;;;;;14.07;9.30;;;2.70;99.90;;;;;;5057775;28;20553;-67
2022/12/07 01:01:11;;;;;;;13.20;8.80;;;2.70;99.90;;;;;;5057346;28;20573;-67
2022/12/07 01:03:40;;;;;;;11.13;7.67;;;2.60;99.90;;;;;;5057590;28;20545;-68
2022/12/07 01:06:07;;;;;;;13.00;8.80;;;2.60;99.90;;;;;;5057889;28;20562;-67
2022/12/07 01:08:34;;;;;;;12.10;7.53;;;2.60;99.90;;;;;;5057442;28;20546;-69
2022/12/07 01:11:02;;;;;;;13.13;8.87;;;2.50;99.90;;;;;;5057106;28;20998;-68
2022/12/07 01:13:30;;;;;;;12.23;7.90;;;2.50;99.90;;;;;;5057218;28;20517;-68
2022/12/07 01:15:59;;;;;;;13.20;9.00;;;2.50;99.90;;;;;;5057094;28;20538;-68
2022/12/07 01:18:27;;;;;;;11.93;8.23;;;2.50;99.90;;;;;;5057128;28;20509;-68
2022/12/07 01:21:04;;;;;;;12.70;8.50;;;2.50;99.90;;;;;;5057477;28;20479;-68
2022/12/07 01:23:32;;;;;;;12.10;8.43;;;2.50;99.90;;;;;;5057338;28;20775;-67
2022/12/07 01:26:00;;;;;;;9.27;7.23;;;2.50;99.90;;;;;;5055696;28;20583;-66
2022/12/07 01:28:28;;;;;;;12.60;8.40;;;2.50;99.90;;;;;;5056835;28;20554;-68
2022/12/07 01:30:59;;;;;;;12.30;8.37;;;2.50;99.90;;;;;;5056834;28;20546;-68
2022/12/07 01:33:28;;;;;;;11.47;8.03;;;2.50;99.90;;;;;;5056943;28;20542;-68
2022/12/07 01:35:55;;;;;;;10.80;8.33;;;2.60;99.90;;;;;;5056906;28;20784;-67
2022/12/07 01:38:24;;;;;;;11.17;7.73;;;2.60;99.90;;;;;;5056752;28;20554;-67
2022/12/07 01:40:55;;;;;;;9.77;7.30;;;2.50;99.90;;;;;;5056792;28;20811;-68
2022/12/07 01:43:24;;;;;;;11.13;7.40;;;2.50;99.90;;;;;;5056768;28;20439;-69
2022/12/07 01:45:51;;;;;;;9.33;7.10;;;2.50;99.90;;;;;;5056993;28;20465;-66
2022/12/07 01:48:23;;;;;;;9.20;7.13;;;2.50;99.90;;;;;;5056908;28;20550;-68
2022/12/07 01:50:53;;;;;;;10.70;8.00;;;2.50;99.90;;;;;;5056991;28;20530;-67
2022/12/07 01:53:22;;;;;;;9.63;7.30;;;2.50;99.90;;;;;;5056549;28;20542;-68
2022/12/07 01:55:53;;;;;;;8.93;7.30;;;2.50;99.90;;;;;;5057351;28;20465;-67
2022/12/07 01:58:21;;;;;;;9.40;6.90;;;2.50;99.90;;;;;;5057452;28;20963;-68
2022/12/07 02:00:48;;;;;;;9.60;7.20;;;2.60;99.90;;;;;;5056713;28;20988;-67
2022/12/07 02:03:19;;;;;;;8.03;6.70;;;2.60;99.90;;;;;;5056741;28;20473;-68
2022/12/07 02:05:48;;;;;;;8.83;6.30;;;2.60;99.90;;;;;;5056204;28;20535;-68
2022/12/07 02:08:16;;;;;;;8.80;6.53;;;2.60;99.90;;;;;;5056705;28;20546;-68
2022/12/07 02:10:43;;;;;;;8.57;6.80;;;2.70;99.90;;;;;;5056665;28;20613;-67
2022/12/07 02:13:16;;;;;;;10.07;6.83;;;2.70;99.90;;;;;;5056471;28;20459;-67
2022/12/07 02:15:59;;;;;;;8.80;6.40;;;2.70;99.90;;;;;;5056139;28;20980;-67
2022/12/07 02:18:35;;;;;;;9.33;6.30;;;2.70;99.90;;;;;;5056454;28;20539;-68
2022/12/07 02:21:09;;;;;;;10.03;7.00;;;2.70;99.90;;;;;;5056594;28;20463;-68
2022/12/07 02:23:56;;;;;;;9.60;6.40;;;2.70;99.90;;;;;;5056214;28;20959;-68
2022/12/07 02:26:56;;;;;;;10.47;5.83;;;2.70;99.90;;;;;;5055818;28;20439;-68
2022/12/07 02:29:28;;;;;;;8.50;6.33;;;2.70;99.90;;;;;;5056090;28;20717;-69
2022/12/07 02:32:04;;;;;;;8.27;6.33;;;2.70;99.90;;;;;;5056132;28;20435;-68
2022/12/07 02:34:36;;;;;;;9.73;6.13;;;2.70;99.90;;;;;;5055990;28;20492;-68
2022/12/07 02:37:11;;;;;;;7.73;6.00;;;2.70;99.90;;;;;;5055686;28;20892;-67
2022/12/07 02:39:44;;;;;;;9.87;6.97;;;2.70;99.90;;;;;;5055555;28;20517;-68
2022/12/07 02:42:16;;;;;;;8.50;6.30;;;2.70;99.90;;;;;;5055552;28;20473;-69
2022/12/07 02:44:46;;;;;;;8.87;6.43;;;2.60;99.90;;;;;;5055361;28;20542;-69
2022/12/07 02:47:17;;;;;;;6.77;5.60;;;2.60;99.90;;;;;;5055714;28;20904;-69
2022/12/07 02:49:45;;;;;;;8.87;6.47;;;2.60;99.90;;;;;;5055195;28;20555;-69
2022/12/07 02:52:12;;;;;;;9.30;7.00;;;2.50;99.90;;;;;;5055479;28;20887;-68
2022/12/07 02:54:39;;;;;;;9.40;6.70;;;2.60;99.90;;;;;;5055217;28;20518;-68
2022/12/07 02:57:21;;;;;;;10.50;7.27;;;2.60;99.90;;;;;;5055615;28;20455;-69
2022/12/07 03:00:01;;;;;;;10.13;6.83;;;2.60;99.90;;;;;;5055107;28;20453;-67
2022/12/07 03:02:37;;;;;;;9.87;6.47;;;2.70;99.90;;;;;;5055195;28;20566;-69
2022/12/07 03:05:25;;;;;;;9.80;7.90;;;2.60;99.90;;;;;;5055268;28;20443;-68
2022/12/07 03:08:01;;;;;;;9.40;7.00;;;2.70;99.90;;;;;;5055083;28;20526;-69
2022/12/07 03:10:36;;;;;;;10.63;6.57;;;2.60;99.90;;;;;;5055235;28;20550;-69
2022/12/07 03:13:10;;;;;;;10.13;7.97;;;2.60;99.90;;;;;;5055189;28;20530;-69
2022/12/07 03:15:44;;;;;;;10.20;7.30;;;2.60;99.90;;;;;;5055071;28;20518;-69
2022/12/07 03:18:13;;;;;;;8.73;6.80;;;2.60;99.90;;;;;;5054827;28;20529;-69
2022/12/07 03:20:42;;;;;;;9.87;7.77;;;2.60;99.90;;;;;;5054526;28;20455;-69
2022/12/07 03:23:11;;;;;;;10.13;6.90;;;2.70;99.90;;;;;;5054846;28;20551;-69
2022/12/07 03:25:41;;;;;;;9.87;8.07;;;2.70;99.90;;;;;;5054528;28;20482;-68
2022/12/07 03:28:09;;;;;;;14.00;8.70;;;2.60;99.90;;;;;;5054548;28;20455;-68
2022/12/07 03:30:43;;;;;;;12.17;8.10;;;2.60;99.90;;;;;;5054769;28;20849;-70
2022/12/07 03:33:14;;;;;;;14.30;9.20;;;2.60;99.90;;;;;;5054882;28;20837;-68
2022/12/07 03:35:45;;;;;;;11.53;8.33;;;2.60;99.90;;;;;;5054780;28;20444;-67
2022/12/07 03:38:18;;;;;;;12.87;9.03;;;2.60;99.90;;;;;;5054820;28;20473;-67
2022/12/07 03:40:50;;;;;;;14.77;9.77;;;2.70;99.90;;;;;;5054718;28;20454;-67
2022/12/07 03:43:19;;;;;;;14.80;9.70;;;2.70;99.90;;;;;;5054699;28;20439;-67
2022/12/07 03:45:58;;;;;;;14.53;9.37;;;2.70;99.90;;;;;;5054735;28;20465;-67
2022/12/07 03:48:28;;;;;;;13.80;9.00;;;2.70;99.90;;;;;;5054057;28;20454;-70
2022/12/07 03:51:01;;;;;;;14.33;10.07;;;2.70;99.90;;;;;;5054423;28;20987;-68
2022/12/07 03:53:35;;;;;;;15.03;10.17;;;2.70;99.90;;;;;;5054928;28;20579;-69
2022/12/07 03:56:04;;;;;;;16.73;9.40;;;2.70;99.90;;;;;;5054766;28;20444;-68
2022/12/07 03:58:32;;;;;;;14.30;9.67;;;2.70;99.90;;;;;;5055144;28;20535;-68
2022/12/07 04:01:00;;;;;;;16.97;9.53;;;2.70;99.90;;;;;;5054570;28;20463;-68
2022/12/07 04:03:27;;;;;;;15.40;9.57;;;2.70;99.90;;;;;;5054263;28;20455;-67
2022/12/07 04:05:54;;;;;;;15.10;10.47;;;2.70;99.90;;;;;;5054486;28;20495;-68
2022/12/07 04:08:21;;;;;;;16.47;9.80;;;2.70;99.90;;;;;;5054424;28;20542;-68
2022/12/07 04:10:48;;;;;;;16.43;10.97;;;2.60;99.90;;;;;;5054412;28;20781;-67
2022/12/07 04:13:15;;;;;;;15.10;10.57;;;2.60;99.90;;;;;;5054507;28;20562;-68
2022/12/07 04:15:41;;;;;;;15.67;11.23;;;2.60;99.90;;;;;;5054507;28;20545;-69
2022/12/07 04:18:10;;;;;;;19.57;10.87;;;2.60;99.90;;;;;;5054762;28;20554;-68
2022/12/07 04:20:36;;;;;;;18.10;11.00;;;2.60;99.90;;;;;;5054180;28;21002;-68
2022/12/07 04:23:03;;;;;;;17.53;11.60;;;2.60;99.90;;;;;;5054441;28;20566;-69
2022/12/07 04:25:30;;;;;;;17.57;11.50;;;2.60;99.90;;;;;;5053974;28;20947;-68
2022/12/07 04:27:57;;;;;;;17.17;11.33;;;2.50;99.90;;;;;;5054343;28;20856;-68
2022/12/07 04:30:24;;;;;;;18.57;12.47;;;2.50;99.90;;;;;;5055038;28;20465;-67
2022/12/07 04:32:51;;;;;;;19.80;12.00;;;2.50;99.90;;;;;;5054373;28;20554;-67
2022/12/07 04:35:19;;;;;;;23.00;12.17;;;2.50;99.90;;;;;;5054342;28;20854;-67
2022/12/07 04:37:46;;;;;;;19.93;11.50;;;2.50;99.90;;;;;;5054362;28;20832;-68
2022/12/07 04:40:14;;;;;;;17.83;11.30;;;2.40;99.90;;;;;;5054069;28;20461;-67
2022/12/07 04:42:41;;;;;;;18.07;11.97;;;2.40;99.90;;;;;;5054128;28;20483;-68
2022/12/07 04:45:09;;;;;;;18.57;12.17;;;2.50;99.90;;;;;;5054273;28;20922;-67
2022/12/07 04:47:35;;;;;;;19.97;12.00;;;2.40;99.90;;;;;;5054188;28;20550;-68
2022/12/07 04:50:02;;;;;;;19.03;12.83;;;2.50;99.90;;;;;;5055135;28;20808;-67
2022/12/07 04:52:30;;;;;;;18.47;12.27;;;2.40;99.90;;;;;;5055534;28;20803;-67
2022/12/07 04:54:57;;;;;;;20.90;12.73;;;2.40;99.90;;;;;;5054384;28;20545;-68
2022/12/07 04:57:24;;;;;;;23.77;13.20;;;2.50;99.90;;;;;;5053913;28;20459;-66
2022/12/07 04:59:51;;;;;;;24.63;14.83;;;2.50;99.90;;;;;;5054084;28;20454;-67
2022/12/07 05:02:18;;;;;;;24.30;13.57;;;2.60;99.90;;;;;;5056547;28;20489;-68
2022/12/07 05:04:44;;;;;;;22.87;15.37;;;2.60;99.90;;;;;;5057617;28;20454;-68
2022/12/07 05:07:11;;;;;;;22.67;13.40;;;2.60;99.90;;;;;;5057275;28;21006;-67
2022/12/07 05:09:39;;;;;;;24.73;15.10;;;2.60;99.90;;;;;;5057420;28;20455;-68
2022/12/07 05:12:06;;;;;;;24.17;14.97;;;2.60;99.90;;;;;;5057725;28;20542;-69
2022/12/07 05:14:33;;;;;;;24.40;15.23;;;2.60;99.90;;;;;;5057168;28;20931;-68
2022/12/07 05:17:00;;;;;;;26.70;14.90;;;2.60;99.90;;;;;;5057523;28;20473;-68
2022/12/07 05:19:27;;;;;;;33.57;18.60;;;2.60;99.90;;;;;;5057094;28;20862;-69
2022/12/07 05:21:53;;;;;;;31.77;17.37;;;2.70;99.90;;;;;;5057365;28;20475;-67
2022/12/07 05:24:20;;;;;;;26.93;17.27;;;2.80;99.90;;;;;;5056649;28;20967;-67
2022/12/07 05:26:49;;;;;;;28.47;16.30;;;2.80;99.90;;;;;;5056796;28;20454;-68
2022/12/07 05:29:17;;;;;;;30.83;17.20;;;2.90;99.90;;;;;;5056809;28;20998;-68
2022/12/07 05:31:45;;;;;;;32.83;17.67;;;2.90;99.90;;;;;;5057322;28;20455;-67
2022/12/07 05:34:12;;;;;;;33.60;17.20;;;2.90;99.90;;;;;;5056714;28;20455;-67
2022/12/07 05:36:39;;;;;;;32.63;17.70;;;3.00;99.90;;;;;;5057070;28;20503;-68
2022/12/07 05:39:07;;;;;;;35.20;18.77;;;3.00;99.90;;;;;;5056881;28;20455;-68
2022/12/07 05:44:19;;;;;;;32.70;18.90;;;3.00;99.90;;;;;;5057223;28;20426;-67
2022/12/07 05:46:46;;;;;;;41.97;21.07;;;3.00;99.90;;;;;;5056808;28;20473;-67
2022/12/07 05:49:13;;;;;;;30.77;17.80;;;3.10;99.90;;;;;;5056975;28;20455;-69
2022/12/07 05:51:39;;;;;;;36.30;18.60;;;3.10;99.90;;;;;;5056657;28;20574;-68
2022/12/07 05:54:06;;;;;;;37.87;18.97;;;3.20;99.90;;;;;;5056760;28;20460;-67
2022/12/07 05:56:33;;;;;;;34.80;18.57;;;3.20;99.90;;;;;;5056477;28;20546;-68
2022/12/07 06:01:46;;;;;;;35.37;18.90;;;3.30;99.90;;;;;;5056470;28;20462;-69
2022/12/07 06:04:12;;;;;;;33.47;18.57;;;3.30;99.90;;;;;;5056725;28;20542;-68
2022/12/07 06:06:39;;;;;;;37.37;18.57;;;3.40;99.90;;;;;;5056328;28;20465;-68
2022/12/07 06:09:06;;;;;;;32.70;18.20;;;3.40;99.90;;;;;;5056352;28;20460;-67
2022/12/07 06:14:18;;;;;;;31.77;17.97;;;3.40;99.90;;;;;;5056225;28;20554;-68
2022/12/07 06:16:46;;;;;;;33.43;17.10;;;3.50;99.90;;;;;;5056121;28;20455;-68
2022/12/07 06:19:13;;;;;;;28.03;15.70;;;3.40;99.90;;;;;;5056272;28;20526;-69
2022/12/07 06:21:40;;;;;;;33.60;17.67;;;3.50;99.90;;;;;;5056344;28;20835;-68
2022/12/07 06:24:07;;;;;;;36.57;20.13;;;3.50;99.90;;;;;;5055894;28;20574;-69
2022/12/07 06:26:34;;;;;;;35.10;18.50;;;3.40;99.90;;;;;;5056079;28;20546;-67
2022/12/07 06:29:01;;;;;;;34.60;17.63;;;3.50;99.90;;;;;;5056037;28;20545;-68
2022/12/07 06:31:28;;;;;;;32.23;17.83;;;3.40;99.90;;;;;;5056048;28;20546;-68
2022/12/07 06:33:59;;;;;;;25.50;16.30;;;3.40;99.90;;;;;;5055857;28;20542;-69
2022/12/07 06:36:26;;;;;;;30.53;16.20;;;3.40;99.90;;;;;;5056139;28;20453;-67
2022/12/07 06:38:53;;;;;;;27.50;15.83;;;3.40;99.90;;;;;;5055603;28;20455;-69
2022/12/07 06:41:20;;;;;;;32.80;16.87;;;3.30;99.90;;;;;;5055504;28;20900;-68
2022/12/07 06:43:47;;;;;;;29.17;17.87;;;3.30;99.90;;;;;;5055494;28;20483;-68
2022/12/07 06:46:14;;;;;;;36.40;16.47;;;3.30;99.90;;;;;;5056637;28;20455;-68
2022/12/07 06:48:41;;;;;;;29.90;16.90;;;3.30;99.90;;;;;;5055594;28;20546;-67
2022/12/07 06:51:09;;;;;;;35.30;18.80;;;3.30;99.90;;;;;;5055832;28;20546;-68
2022/12/07 06:53:37;;;;;;;31.40;17.63;;;3.30;99.90;;;;;;5055837;28;20562;-68
2022/12/07 06:56:04;;;;;;;28.53;16.20;;;3.30;99.90;;;;;;5055314;28;20535;-67
2022/12/07 06:58:31;;;;;;;37.30;17.60;;;3.40;99.90;;;;;;5055327;28;20541;-66
2022/12/07 07:00:58;;;;;;;27.90;17.20;;;3.30;99.90;;;;;;5055595;28;20863;-69
2022/12/07 07:03:25;;;;;;;32.80;18.73;;;3.30;99.90;;;;;;5055184;28;20565;-68
2022/12/07 07:05:52;;;;;;;31.27;17.00;;;3.40;99.90;;;;;;5055089;28;20915;-69
2022/12/07 07:08:20;;;;;;;32.43;18.70;;;3.40;99.90;;;;;;5055525;28;20456;-68
2022/12/07 07:10:47;;;;;;;36.77;18.97;;;3.40;99.90;;;;;;5055560;28;20546;-68
2022/12/07 07:13:13;;;;;;;38.97;18.57;;;3.50;99.90;;;;;;5055084;28;21022;-68
2022/12/07 07:15:40;;;;;;;36.50;18.00;;;3.50;99.90;;;;;;5055305;28;20546;-67
2022/12/07 07:18:07;;;;;;;35.27;19.13;;;3.50;99.90;;;;;;5055332;28;20530;-68
2022/12/07 07:20:34;;;;;;;33.27;19.43;;;3.50;99.90;;;;;;5055562;28;20513;-68
2022/12/07 07:23:01;;;;;;;44.87;20.40;;;3.60;99.90;;;;;;5054635;28;20565;-67
2022/12/07 07:25:30;;;;;;;35.37;18.83;;;3.60;99.90;;;;;;5054326;28;20959;-68
2022/12/07 07:27:56;;;;;;;40.07;19.80;;;3.60;99.90;;;;;;5054938;28;20883;-68
2022/12/07 07:30:23;;;;;;;27.87;16.83;;;3.60;99.90;;;;;;5054932;28;20550;-67
2022/12/07 07:32:50;;;;;;;31.93;19.20;;;3.70;99.90;;;;;;5054883;28;20549;-67
2022/12/07 07:35:17;;;;;;;32.17;17.97;;;3.70;99.90;;;;;;5055156;28;20490;-67
2022/12/07 07:37:44;;;;;;;27.77;16.17;;;3.70;99.90;;;;;;5054561;28;20545;-66
2022/12/07 07:40:12;;;;;;;28.90;15.40;;;3.70;99.90;;;;;;5054999;28;20465;-65
2022/12/07 07:42:40;;;;;;;37.40;16.47;;;3.70;99.90;;;;;;5054699;28;20515;-67
2022/12/07 07:45:08;;;;;;;24.60;15.20;;;3.70;99.90;;;;;;5057252;28;20456;-66
2022/12/07 07:47:35;;;;;;;29.00;16.80;;;3.70;99.90;;;;;;5057604;28;20549;-67
2022/12/07 07:50:02;;;;;;;21.23;14.00;;;3.70;99.90;;;;;;5055109;28;20546;-68
2022/12/07 07:52:29;;;;;;;23.33;13.30;;;3.70;99.90;;;;;;5054744;28;20538;-66
2022/12/07 07:54:55;;;;;;;22.47;12.87;;;3.80;99.90;;;;;;5054577;28;20494;-67
2022/12/07 07:57:22;;;;;;;21.80;12.53;;;3.80;99.90;;;;;;5054723;28;20538;-67
2022/12/07 07:59:51;;;;;;;18.97;11.90;;;3.80;99.90;;;;;;5054619;28;20538;-67
2022/12/07 08:02:20;;;;;;;20.63;12.00;;;3.80;99.90;;;;;;5054088;28;20479;-68
2022/12/07 08:04:47;;;;;;;21.17;12.10;;;3.80;99.90;;;;;;5055090;28;20457;-68
2022/12/07 08:07:15;;;;;;;16.07;10.70;;;3.90;99.90;;;;;;5054162;28;20943;-68
2022/12/07 08:09:42;;;;;;;15.90;9.77;;;3.90;99.90;;;;;;5054428;28;20459;-68
2022/12/07 08:12:09;;;;;;;13.77;10.17;;;3.80;99.90;;;;;;5054389;28;20459;-66
2022/12/07 08:14:36;;;;;;;13.40;9.47;;;3.90;99.90;;;;;;5054419;28;20546;-67
2022/12/07 08:17:04;;;;;;;13.37;9.60;;;3.90;99.90;;;;;;5054387;28;20467;-67
2022/12/07 08:19:31;;;;;;;15.17;9.10;;;3.90;99.90;;;;;;5055916;28;20459;-68
2022/12/07 08:21:58;;;;;;;12.43;9.70;;;3.90;99.90;;;;;;5055115;28;20549;-68
2022/12/07 08:24:25;;;;;;;12.87;7.77;;;3.90;99.90;;;;;;5054321;28;20571;-66
2022/12/07 08:26:52;;;;;;;13.50;8.37;;;3.90;99.90;;;;;;5054786;28;20808;-67
2022/12/07 08:29:19;;;;;;;13.10;7.60;;;3.90;99.90;;;;;;5054001;28;20554;-66
2022/12/07 08:31:46;;;;;;;10.90;6.80;;;4.00;99.90;;;;;;5053992;28;20542;-66
2022/12/07 08:34:15;;;;;;;10.60;6.97;;;4.00;99.90;;;;;;5054401;28;20541;-65
2022/12/07 08:36:41;;;;;;;10.33;5.90;;;4.00;99.90;;;;;;5057902;28;20934;-67
2022/12/07 08:39:08;;;;;;;11.57;6.77;;;4.00;99.90;;;;;;5057854;28;20518;-66
2022/12/07 08:41:35;;;;;;;10.67;5.93;;;4.00;99.90;;;;;;5058296;28;20455;-67
2022/12/07 08:44:02;;;;;;;7.43;5.60;;;4.00;99.90;;;;;;5059340;28;20585;-67
2022/12/07 08:46:34;;;;;;;7.10;5.23;;;4.10;99.90;;;;;;5060012;28;20974;-67
2022/12/07 08:49:05;;;;;;;6.07;5.27;;;4.10;99.90;;;;;;5058150;28;20459;-67
2022/12/07 08:51:34;;;;;;;5.50;4.80;;;4.10;99.90;;;;;;5057913;28;20530;-68
2022/12/07 08:54:04;;;;;;;8.37;5.63;;;4.10;99.90;;;;;;5057786;28;21014;-67
2022/12/07 08:56:31;;;;;;;6.30;4.83;;;4.00;99.90;;;;;;5058365;28;20492;-68
2022/12/07 08:58:58;;;;;;;5.27;4.63;;;4.10;99.90;;;;;;5059287;28;20547;-67
2022/12/07 09:01:25;;;;;;;4.77;4.23;;;4.10;99.90;;;;;;5057626;28;20771;-67
2022/12/07 09:03:52;;;;;;;4.00;3.50;;;4.00;99.90;;;;;;5057328;28;20569;-67
2022/12/07 09:06:19;;;;;;;4.47;3.37;;;4.10;99.90;;;;;;5057134;28;20546;-67
2022/12/07 09:08:53;;;;;;;4.50;3.77;;;4.00;99.90;;;;;;5057213;28;20923;-67
2022/12/07 09:11:20;;;;;;;6.53;4.10;;;4.10;99.90;;;;;;5057816;28;20446;-67
2022/12/07 09:13:47;;;;;;;4.00;3.60;;;4.10;99.90;;;;;;5057455;28;21007;-66
2022/12/07 09:16:14;;;;;;;5.03;3.57;;;4.10;99.90;;;;;;5057160;28;20932;-68
2022/12/07 09:18:41;;;;;;;4.63;3.70;;;4.10;99.90;;;;;;5057256;28;20550;-67
2022/12/07 09:21:09;;;;;;;3.13;2.83;;;4.10;99.90;;;;;;5058439;28;20491;-67
2022/12/07 09:23:36;;;;;;;3.40;2.90;;;4.10;99.90;;;;;;5057571;28;20483;-67
2022/12/07 09:26:05;;;;;;;3.20;2.87;;;4.00;99.90;;;;;;5056992;28;20479;-68
2022/12/07 09:28:32;;;;;;;3.30;3.00;;;3.90;99.90;;;;;;5058507;28;20935;-66
2022/12/07 09:30:59;;;;;;;3.70;2.80;;;3.90;99.90;;;;;;5057389;28;20481;-67
2022/12/07 09:33:26;;;;;;;3.20;2.73;;;3.90;99.90;;;;;;5057336;28;20855;-69
2022/12/07 09:35:53;;;;;;;2.93;2.63;;;4.00;99.90;;;;;;5056893;28;20541;-68
2022/12/07 09:38:21;;;;;;;4.00;3.50;;;3.90;99.90;;;;;;5057058;28;20538;-68
2022/12/07 09:40:48;;;;;;;3.40;3.10;;;4.00;99.90;;;;;;5056397;28;20549;-68
2022/12/07 09:43:20;;;;;;;3.10;2.80;;;4.00;99.90;;;;;;5057412;28;20471;-67
2022/12/07 09:45:51;;;;;;;3.43;3.13;;;3.90;99.90;;;;;;5056698;28;20960;-68
2022/12/07 09:48:21;;;;;;;5.00;2.90;;;3.90;99.90;;;;;;5056182;28;20439;-68
2022/12/07 09:50:50;;;;;;;4.27;3.30;;;3.80;99.90;;;;;;5056865;28;20542;-67
2022/12/07 09:53:23;;;;;;;3.40;2.53;;;3.80;99.90;;;;;;5056841;28;20451;-69
2022/12/07 09:55:50;;;;;;;2.70;2.50;;;3.70;99.90;;;;;;5056042;28;20539;-68
2022/12/07 09:58:22;;;;;;;2.97;2.67;;;3.70;99.90;;;;;;5056299;28;20465;-66
2022/12/07 10:00:51;;;;;;;3.30;2.93;;;3.80;99.90;;;;;;5056535;28;20871;-66
2022/12/07 10:03:18;;;;;;;3.07;2.73;;;3.80;99.90;;;;;;5056248;28;20515;-68
2022/12/07 10:05:48;;;;;;;3.47;2.90;;;3.80;99.90;;;;;;5056646;28;20542;-68
2022/12/07 10:08:16;;;;;;;9.53;3.30;;;3.80;99.90;;;;;;5057289;28;20510;-68
2022/12/07 10:10:45;;;;;;;3.80;2.70;;;3.80;99.90;;;;;;5056317;28;20470;-68
2022/12/07 10:13:14;;;;;;;3.10;2.80;;;3.90;99.90;;;;;;5055673;28;20451;-66
2022/12/07 10:15:48;;;;;;;2.87;2.67;;;3.90;99.90;;;;;;5056323;28;20537;-67
2022/12/07 10:18:22;;;;;;;3.03;2.73;;;3.90;99.90;;;;;;5056847;28;20542;-68
2022/12/07 10:20:49;;;;;;;3.80;3.10;;;3.90;99.90;;;;;;5056391;28;20826;-68
2022/12/07 10:23:18;;;;;;;4.07;2.80;;;3.80;99.90;;;;;;5056081;28;20483;-68
2022/12/07 10:25:48;;;;;;;3.70;3.17;;;3.80;99.90;;;;;;5055628;28;20874;-68
2022/12/07 10:28:17;;;;;;;3.17;2.87;;;3.80;99.90;;;;;;5056199;28;20455;-67
2022/12/07 10:30:51;;;;;;;3.23;2.93;;;3.80;99.90;;;;;;5056323;28;20546;-68
2022/12/07 10:33:36;;;;;;;3.10;2.80;;;3.80;99.90;;;;;;5055810;28;20514;-67
2022/12/07 10:36:19;;;;;;;3.53;2.70;;;3.80;99.90;;;;;;5057386;28;20815;-67
2022/12/07 10:38:48;;;;;;;2.60;2.40;;;3.90;99.90;;;;;;5058943;28;20507;-67
2022/12/07 10:41:15;;;;;;;5.00;2.40;;;3.90;99.90;;;;;;5057298;28;20604;-68
2022/12/07 10:43:49;;;;;;;4.30;2.80;;;4.00;99.90;;;;;;5056098;28;20586;-68
2022/12/07 10:46:39;;;;;;;2.50;2.30;;;4.10;99.90;;;;;;5055360;28;20864;-67
2022/12/07 10:49:26;;;;;;;3.37;2.73;;;4.00;99.90;;;;;;5055588;28;20530;-68
2022/12/07 10:52:01;;;;;;;6.00;2.93;;;4.10;99.90;;;;;;5055172;28;20975;-67
2022/12/07 10:54:37;;;;;;;4.30;2.60;;;4.00;99.90;;;;;;5055188;28;20949;-67
2022/12/07 10:57:20;;;;;;;3.43;2.97;;;4.10;99.90;;;;;;5055297;28;20526;-66
2022/12/07 11:00:09;;;;;;;5.00;3.33;;;4.00;99.90;;;;;;5055087;28;20439;-67
2022/12/07 11:03:04;;;;;;;4.20;3.50;;;3.90;99.90;;;;;;5055358;28;20458;-68
2022/12/07 11:05:39;;;;;;;4.20;3.60;;;3.90;99.90;;;;;;5055048;28;20520;-67
2022/12/07 11:08:16;;;;;;;2.93;2.63;;;3.90;99.90;;;;;;5054918;28;20542;-68
2022/12/07 11:10:49;;;;;;;5.17;3.70;;;3.90;99.90;;;;;;5055299;28;20523;-68
2022/12/07 11:13:26;;;;;;;4.00;3.60;;;3.90;99.90;;;;;;5055329;28;20747;-66
2022/12/07 11:16:07;;;;;;;4.30;3.27;;;3.90;99.90;;;;;;5054823;28;20450;-68
2022/12/07 11:18:44;;;;;;;5.33;4.10;;;3.90;99.90;;;;;;5055096;28;20439;-67
2022/12/07 11:21:21;;;;;;;5.10;4.30;;;3.90;99.90;;;;;;5054337;28;20474;-67
2022/12/07 11:23:53;;;;;;;3.90;3.60;;;3.90;99.90;;;;;;5053991;28;20462;-68
2022/12/07 11:26:32;;;;;;;4.40;4.00;;;4.00;99.90;;;;;;5054857;28;20531;-67
2022/12/07 11:29:22;;;;;;;6.60;4.00;;;4.10;99.90;;;;;;5054639;28;20807;-67
2022/12/07 11:32:04;;;;;;;5.00;4.10;;;4.10;99.90;;;;;;5054429;28;20507;-68
2022/12/07 11:34:40;;;;;;;4.80;4.10;;;4.10;99.90;;;;;;5055370;28;20435;-67
2022/12/07 11:37:14;;;;;;;5.43;3.80;;;4.10;99.90;;;;;;5054476;28;20531;-66
2022/12/07 11:39:45;;;;;;;7.60;4.27;;;4.20;99.90;;;;;;5054363;28;20551;-67
2022/12/07 11:42:17;;;;;;;5.60;4.43;;;4.20;99.90;;;;;;5054000;28;20467;-67
2022/12/07 11:44:53;;;;;;;4.13;3.60;;;4.30;99.90;;;;;;5054489;28;20576;-67
2022/12/07 11:47:28;;;;;;;5.80;4.33;;;4.30;99.90;;;;;;5054602;28;20508;-67
2022/12/07 11:50:03;;;;;;;6.27;3.93;;;4.20;99.90;;;;;;5054851;28;20530;-67
2022/12/07 11:52:40;;;;;;;5.47;4.80;;;4.20;99.90;;;;;;5054223;28;20526;-66
2022/12/07 11:55:19;;;;;;;7.10;4.30;;;4.20;99.90;;;;;;5054535;28;20449;-67
2022/12/07 11:57:49;;;;;;;5.50;4.70;;;4.20;99.90;;;;;;5054221;28;20864;-67
2022/12/07 12:00:18;;;;;;;6.53;5.10;;;4.30;99.90;;;;;;5054425;28;20470;-67
2022/12/07 12:02:52;;;;;;;5.30;4.50;;;4.40;99.90;;;;;;5053773;28;20539;-67
2022/12/07 12:05:23;;;;;;;5.03;4.50;;;4.30;99.90;;;;;;5053767;28;20478;-67
2022/12/07 12:07:58;;;;;;;5.83;4.53;;;4.40;99.90;;;;;;5053617;28;20538;-67
2022/12/07 12:10:34;;;;;;;5.43;4.90;;;4.40;99.90;;;;;;5055620;28;20531;-67
2022/12/07 12:13:34;;;;;;;6.87;4.53;;;4.40;99.90;;;;;;5057842;28;20951;-66
2022/12/07 12:16:19;;;;;;;9.13;4.80;;;4.40;99.90;;;;;;5057739;28;20457;-66
2022/12/07 12:18:59;;;;;;;8.90;5.20;;;4.50;99.90;;;;;;5057728;28;20469;-67
2022/12/07 12:21:30;;;;;;;6.03;4.93;;;4.50;99.90;;;;;;5066238;28;20478;-68
2022/12/07 12:24:00;;;;;;;6.50;4.50;;;4.40;99.90;;;;;;5078550;28;20656;-68
2022/12/07 12:26:29;;;;;;;13.73;6.00;;;4.50;99.90;;;;;;5077961;28;20443;-67
2022/12/07 12:28:59;;;;;;;10.80;5.60;;;4.50;99.90;;;;;;5078049;28;20570;-67
2022/12/07 12:31:36;;;;;;;7.60;5.07;;;4.60;99.90;;;;;;5077678;28;20458;-66
2022/12/07 12:34:05;;;;;;;8.70;4.10;;;4.70;99.90;;;;;;5077716;28;20553;-68
2022/12/07 12:36:47;;;;;;;5.37;4.40;;;4.70;99.90;;;;;;5077663;28;20528;-67
2022/12/07 12:39:16;;;;;;;5.00;3.53;;;4.60;99.90;;;;;;5077244;28;20855;-67
2022/12/07 12:42:06;;;;;;;4.83;4.37;;;4.60;99.90;;;;;;5077612;28;20454;-66
2022/12/07 12:45:05;;;;;;;5.70;3.63;;;4.60;99.90;;;;;;5077391;28;20557;-67
2022/12/07 12:47:54;;;;;;;7.30;4.20;;;4.60;99.90;;;;;;5077774;28;20918;-66
2022/12/07 12:50:29;;;;;;;5.53;3.20;;;4.60;99.90;;;;;;5069207;28;20843;-68
2022/12/07 12:53:21;;;;;;;6.60;3.50;;;4.60;99.90;;;;;;5077488;28;20567;-67
2022/12/07 12:56:25;;;;;;;12.13;3.90;;;4.60;99.90;;;;;;5077508;28;20438;-67
2022/12/07 12:59:27;;;;;;;4.30;3.30;;;4.60;99.90;;;;;;5077818;28;20870;-67
2022/12/07 13:01:57;;;;;;;3.57;3.10;;;4.60;99.90;;;;;;5056073;28;20541;-67
2022/12/07 13:04:40;;;;;;;4.53;3.30;;;4.60;99.90;;;;;;5057251;28;20775;-67
2022/12/07 13:07:35;;;;;;;5.77;3.23;;;4.60;99.90;;;;;;5057412;28;20500;-68
2022/12/07 13:10:03;;;;;;;4.97;3.30;;;4.70;99.90;;;;;;5057320;28;20461;-68
2022/12/07 13:12:31;;;;;;;3.87;3.00;;;4.60;99.90;;;;;;5058306;28;20486;-69
2022/12/07 13:14:59;;;;;;;8.20;3.20;;;4.70;99.90;;;;;;5059548;28;20737;-67